^^
Meteo Knjazevac Station Historical Data
Daily Summary for March 2, 2021 Units:  English    Metric   Both
Daily Weekly Monthly Yearly Custom
  High: Low: Average:
Temperature: 48.4 °F 26.1 °F 33.8 °F
Dew Point: 42 °F 25.1 °F 31.9 °F
Humidity: 99% 77% 93%
Wind Speed: 7mph 0mph 1.8mph
Wind Gust: 13mph - -
Wind- - SSE
Pressure: 30.23 in 30.15 in -
Precipitation: 0.00 in    
Historical Graphs
 
 
Tabular Data for March 2, 2021
Time Temperature Dew Point Pressure Wind Wind Speed Wind Gust Humidity Rainfall Rate (Hourly) solar Conditions
00:00 31.3 °F 29.8 °F 30.15 in West 2 mph 6 mph 94% 0.00 in 0 W/m2
00:10 31.1 °F 29.8 °F 30.15 in West 2 mph 5 mph 95% 0.00 in 0 W/m2
00:20 31.1 °F 29.8 °F 30.15 in WNW 3 mph 6 mph 95% 0.00 in 0 W/m2
00:30 31.5 °F 30.2 °F 30.15 in WNW 3 mph 5 mph 95% 0.00 in 0 W/m2
00:40 31.5 °F 30.2 °F 30.15 in WNW 2 mph 5 mph 95% 0.00 in 0 W/m2
00:50 31.1 °F 29.8 °F 30.16 in WNW 3 mph 5 mph 95% 0.00 in 0 W/m2
01:00 31.1 °F 29.8 °F 30.16 in West 3 mph 5 mph 95% 0.00 in 0 W/m2
01:10 31.1 °F 29.8 °F 30.16 in WNW 1 mph 5 mph 95% 0.00 in 0 W/m2
01:20 30.7 °F 29.5 °F 30.16 in West 2 mph 4 mph 95% 0.00 in 0 W/m2
01:30 30.4 °F 29.1 °F 30.17 in WNW 2 mph 4 mph 95% 0.00 in 0 W/m2
01:40 30.7 °F 29.7 °F 30.17 in Calm   4 mph 96% 0.00 in 0 W/m2
01:50 30.7 °F 29.7 °F 30.17 in WNW 2 mph 4 mph 96% 0.00 in 0 W/m2
02:00 30.6 °F 29.3 °F 30.17 in Calm   3 mph 95% 0.00 in 0 W/m2
02:10 30.4 °F 29.1 °F 30.17 in Calm   3 mph 95% 0.00 in 0 W/m2
02:20 30 °F 28.8 °F 30.17 in WNW 2 mph 4 mph 95% 0.00 in 0 W/m2
02:30 30 °F 28.8 °F 30.17 in NNW 1 mph 3 mph 95% 0.00 in 0 W/m2
02:40 29.8 °F 28.6 °F 30.17 in West 1 mph 3 mph 95% 0.00 in 0 W/m2
02:50 29.7 °F 28.4 °F 30.17 in WNW 1 mph 2 mph 95% 0.00 in 0 W/m2
03:00 29.3 °F 28 °F 30.17 in WNW 1 mph 3 mph 95% 0.00 in 0 W/m2
03:10 29.1 °F 28.1 °F 30.18 in NW 5 mph 7 mph 96% 0.00 in 0 W/m2
03:20 29.8 °F 28.8 °F 30.18 in Calm   5 mph 96% 0.00 in 0 W/m2
03:30 29.5 °F 28.5 °F 30.18 in Calm   4 mph 96% 0.00 in 0 W/m2
03:40 29.1 °F 27.9 °F 30.18 in NW 2 mph 2 mph 95% 0.00 in 0 W/m2
03:50 28.9 °F 27.9 °F 30.18 in North 1 mph 3 mph 96% 0.00 in 0 W/m2
04:00 28.8 °F 27.8 °F 30.18 in Calm   2 mph 96% 0.00 in 0 W/m2
04:10 28.6 °F 27.6 °F 30.18 in NW 2 mph 2 mph 96% 0.00 in 0 W/m2
04:20 28.4 °F 27.1 °F 30.18 in WNW 2 mph 3 mph 95% 0.00 in 0 W/m2
04:30 28.2 °F 27.2 °F 30.18 in Calm   3 mph 96% 0.00 in 0 W/m2
04:40 28 °F 27 °F 30.18 in NW 2 mph 3 mph 96% 0.00 in 0 W/m2
04:50 27.9 °F 26.9 °F 30.18 in NW 1 mph 3 mph 96% 0.00 in 0 W/m2
05:00 27.7 °F 26.7 °F 30.18 in Calm   2 mph 96% 0.00 in 0 W/m2
05:10 27.5 °F 26.5 °F 30.18 in West 1 mph 2 mph 96% 0.00 in 0 W/m2
05:20 27.5 °F 26.5 °F 30.18 in WNW 1 mph 3 mph 96% 0.00 in 0 W/m2
05:30 27.3 °F 26.3 °F 30.19 in WNW 1 mph 3 mph 96% 0.00 in 0 W/m2
05:40 27.3 °F 26.3 °F 30.19 in Calm   2 mph 96% 0.00 in 0 W/m2
05:50 27.1 °F 26.2 °F 30.19 in WNW 1 mph 2 mph 96% 0.00 in 0 W/m2
06:00 26.8 °F 25.8 °F 30.19 in NW 1 mph 2 mph 96% 0.00 in 0 W/m2
06:10 26.8 °F 25.8 °F 30.19 in Calm   2 mph 96% 0.00 in 0 W/m2
06:20 26.6 °F 25.6 °F 30.20 in Calm   2 mph 96% 0.00 in 0 W/m2
06:30 26.4 °F 25.4 °F 30.20 in Calm   2 mph 96% 0.00 in 0 W/m2
06:40 26.6 °F 25.6 °F 30.20 in North 2 mph 5 mph 96% 0.00 in 0 W/m2
06:50 26.4 °F 25.9 °F 30.20 in Calm   4 mph 98% 0.00 in 0 W/m2
07:00 26.2 °F 25.3 °F 30.20 in NNE 1 mph 3 mph 96% 0.00 in 0 W/m2
07:10 26.2 °F 25.2 °F 30.21 in NW 1 mph 3 mph 96% 0.00 in 7 W/m2
07:20 26.1 °F 25.1 °F 30.21 in Calm   2 mph 96% 0.00 in 5 W/m2
07:30 26.1 °F 25.1 °F 30.21 in Calm   2 mph 96% 0.00 in 19 W/m2
07:40 26.2 °F 25.7 °F 30.21 in Calm   3 mph 98% 0.00 in 35 W/m2
07:50 26.2 °F 25.7 °F 30.22 in Calm   2 mph 98% 0.00 in 49 W/m2
08:00 26.1 °F 25.6 °F 30.22 in Calm   2 mph 98% 0.00 in 68 W/m2
08:10 26.4 °F 25.9 °F 30.22 in Calm   4 mph 98% 0.00 in 83 W/m2
08:20 27.1 °F 26.7 °F 30.22 in Calm   3 mph 98% 0.00 in 107 W/m2
08:30 27.3 °F 26.8 °F 30.22 in Calm   2 mph 98% 0.00 in 127 W/m2
08:40 28.2 °F 27.7 °F 30.22 in Calm   2 mph 98% 0.00 in 143 W/m2
08:50 29 °F 28.5 °F 30.23 in Calm   2 mph 98% 0.00 in 163 W/m2
09:00 30 °F 29.5 °F 30.23 in North 1 mph 5 mph 98% 0.00 in 183 W/m2
09:10 30.7 °F 30.2 °F 30.23 in ENE 2 mph 5 mph 98% 0.00 in 200 W/m2
09:20 31.1 °F 30.6 °F 30.23 in Calm   5 mph 98% 0.00 in 217 W/m2
09:30 31.8 °F 30.8 °F 30.23 in South 1 mph 5 mph 96% 0.00 in 233 W/m2
09:40 32.9 °F 31.9 °F 30.23 in NNE 3 mph 8 mph 96% 0.00 in 248 W/m2
09:50 33.6 °F 32.3 °F 30.23 in North 3 mph 8 mph 95% 0.00 in 262 W/m2
10:00 33.8 °F 32.8 °F 30.23 in NNE 2 mph 8 mph 96% 0.00 in 179 W/m2
10:10 33.8 °F 32.8 °F 30.22 in NW 1 mph 6 mph 96% 0.00 in 286 W/m2
10:20 34.5 °F 33.5 °F 30.22 in NE 5 mph 8 mph 96% 0.00 in 297 W/m2
10:30 34.9 °F 33.9 °F 30.22 in NNE 6 mph 8 mph 96% 0.00 in 160 W/m2
10:40 34.9 °F 33.9 °F 30.22 in North 1 mph 8 mph 96% 0.00 in 172 W/m2
10:50 35.1 °F 34.6 °F 30.22 in North 2 mph 7 mph 98% 0.00 in 245 W/m2
11:00 35.4 °F 34.9 °F 30.22 in NNE 5 mph 8 mph 98% 0.00 in 324 W/m2
11:10 36.7 °F 36.2 °F 30.21 in North 3 mph 7 mph 98% 0.00 in 329 W/m2
11:20 38.2 °F 37.1 °F 30.21 in NNE 3 mph 8 mph 96% 0.00 in 332 W/m2
11:30 39.2 °F 37.6 °F 30.21 in WNW 1 mph 7 mph 94% 0.00 in 333 W/m2
11:40 40.7 °F 38.8 °F 30.20 in NNE 1 mph 7 mph 93% 0.00 in 332 W/m2
11:50 41.4 °F 39 °F 30.19 in NNE 3 mph 8 mph 91% 0.00 in 330 W/m2
12:00 42.3 °F 39.6 °F 30.19 in North 5 mph 10 mph 90% 0.00 in 327 W/m2
12:10 43.2 °F 40.1 °F 30.19 in NE 3 mph 8 mph 89% 0.00 in 323 W/m2
12:20 44.1 °F 40.7 °F 30.18 in North 2 mph 7 mph 88% 0.00 in 317 W/m2
12:30 44.8 °F 40.8 °F 30.18 in NNE 2 mph 7 mph 86% 0.00 in 309 W/m2
12:40 45.5 °F 41.3 °F 30.17 in NNE 1 mph 7 mph 85% 0.00 in 301 W/m2
12:50 46.2 °F 41.7 °F 30.17 in NNE 3 mph 10 mph 84% 0.00 in 291 W/m2
13:00 46.8 °F 41.9 °F 30.17 in NNE 3 mph 8 mph 83% 0.00 in 279 W/m2
13:10 47.1 °F 41.6 °F 30.17 in NNE 5 mph 8 mph 81% 0.00 in 267 W/m2
13:20 47.5 °F 41.9 °F 30.17 in NNE 3 mph 8 mph 81% 0.00 in 254 W/m2
13:30 47.8 °F 41.6 °F 30.16 in North 3 mph 9 mph 79% 0.00 in 239 W/m2
13:40 48.2 °F 42 °F 30.16 in North 3 mph 10 mph 79% 0.00 in 224 W/m2
13:50 48.4 °F 41.8 °F 30.17 in North 5 mph 8 mph 78% 0.00 in 207 W/m2
14:00 48.4 °F 41.5 °F 30.17 in North 5 mph 9 mph 77% 0.00 in 190 W/m2
14:10 48.2 °F 41.3 °F 30.16 in NNE 3 mph 10 mph 77% 0.00 in 172 W/m2
14:20 47.8 °F 41 °F 30.16 in North 5 mph 9 mph 77% 0.00 in 154 W/m2
14:30 47.1 °F 40.6 °F 30.17 in North 3 mph 8 mph 78% 0.00 in 135 W/m2
14:40 46.4 °F 40.2 °F 30.17 in North 2 mph 10 mph 79% 0.00 in 116 W/m2
14:50 45.5 °F 39.7 °F 30.16 in NNE 7 mph 13 mph 80% 0.00 in 97 W/m2
15:00 44.6 °F 39.1 °F 30.17 in North 3 mph 12 mph 81% 0.00 in 78 W/m2
15:10 44 °F 39.2 °F 30.17 in North 6 mph 9 mph 83% 0.00 in 59 W/m2
15:20 43.3 °F 38.5 °F 30.17 in NNE 6 mph 10 mph 83% 0.00 in 42 W/m2
15:30 42.6 °F 38.1 °F 30.17 in NNE 6 mph 10 mph 84% 0.00 in 25 W/m2
15:40 41.9 °F 37.7 °F 30.17 in NNE 6 mph 13 mph 85% 0.00 in 11 W/m2
15:50 41.4 °F 37.2 °F 30.17 in North 2 mph 8 mph 85% 0.00 in 13 W/m2
16:00 40.8 °F 36.9 °F 30.17 in NNE 6 mph 8 mph 86% 0.00 in 7 W/m2
16:10 40.1 °F 36.8 °F 30.17 in NNE 6 mph 10 mph 88% 0.00 in 0 W/m2
16:20 39.7 °F 36.5 °F 30.17 in North 2 mph 7 mph 88% 0.00 in 0 W/m2
16:30 39.2 °F 36.2 °F 30.17 in NNE 5 mph 8 mph 89% 0.00 in 0 W/m2
16:40 38.7 °F 35.7 °F 30.17 in NNE 5 mph 9 mph 89% 0.00 in 0 W/m2
16:50 38.3 °F 35.6 °F 30.17 in NNE 6 mph 9 mph 90% 0.00 in 0 W/m2
17:00 38.1 °F 35.4 °F 30.18 in NNE 2 mph 8 mph 90% 0.00 in 0 W/m2
17:10 37.8 °F 35.1 °F 30.18 in NNE 2 mph 6 mph 90% 0.00 in 0 W/m2
17:20 37.4 °F 34.7 °F 30.18 in North 2 mph 6 mph 90% 0.00 in 0 W/m2
17:30 37.4 °F 35 °F 30.18 in NNE 2 mph 6 mph 91% 0.00 in 0 W/m2
17:40 37 °F 34.7 °F 30.18 in North 1 mph 6 mph 91% 0.00 in 0 W/m2
17:50 36.5 °F 34.1 °F 30.18 in WSW 1 mph 3 mph 91% 0.00 in 0 W/m2
18:00 35.6 °F 33.2 °F 30.18 in Calm   3 mph 91% 0.00 in 0 W/m2
18:10 35.2 °F 32.9 °F 30.18 in Calm   2 mph 91% 0.00 in 0 W/m2
18:20 34.9 °F 33.1 °F 30.18 in Calm   2 mph 93% 0.00 in 0 W/m2
18:30 34.5 °F 32.7 °F 30.18 in SSW 1 mph 3 mph 93% 0.00 in 0 W/m2
18:40 34.2 °F 32.3 °F 30.18 in WNW 1 mph 3 mph 93% 0.00 in 0 W/m2
18:50 33.4 °F 31.6 °F 30.18 in WNW 1 mph 3 mph 93% 0.00 in 0 W/m2
19:00 33 °F 31.2 °F 30.18 in Calm   2 mph 93% 0.00 in 0 W/m2
19:10 32.7 °F 31.2 °F 30.18 in West 1 mph 3 mph 94% 0.00 in 0 W/m2
19:20 32.7 °F 31.4 °F 30.18 in Calm   5 mph 95% 0.00 in 0 W/m2
19:30 32.3 °F 31 °F 30.18 in WNW 2 mph 4 mph 95% 0.00 in 0 W/m2
19:40 31.8 °F 30.6 °F 30.18 in North 1 mph 3 mph 95% 0.00 in 0 W/m2
19:50 31.8 °F 30.5 °F 30.18 in Calm   3 mph 95% 0.00 in 0 W/m2
20:00 31.6 °F 30.4 °F 30.18 in Calm   5 mph 95% 0.00 in 0 W/m2
20:10 31.1 °F 29.8 °F 30.18 in WSW 2 mph 4 mph 95% 0.00 in 0 W/m2
20:20 30.9 °F 29.9 °F 30.18 in WNW 2 mph 6 mph 96% 0.00 in 0 W/m2
20:30 30.8 °F 29.8 °F 30.17 in Calm   3 mph 96% 0.00 in 0 W/m2
20:40 30.7 °F 29.7 °F 30.17 in Calm   5 mph 96% 0.00 in 0 W/m2
20:50 30.6 °F 29.6 °F 30.17 in West 2 mph 3 mph 96% 0.00 in 0 W/m2
21:00 30.4 °F 29.4 °F 30.17 in Calm   4 mph 96% 0.00 in 0 W/m2
21:10 30.3 °F 29.8 °F 30.17 in Calm   2 mph 98% 0.00 in 0 W/m2
21:20 30 °F 29.5 °F 30.17 in WNW 1 mph 3 mph 98% 0.00 in 0 W/m2
21:30 29.8 °F 29.3 °F 30.17 in Calm   2 mph 98% 0.00 in 0 W/m2
21:40 29.8 °F 29.3 °F 30.17 in Calm   2 mph 98% 0.00 in 0 W/m2
21:50 29.8 °F 29.3 °F 30.17 in West 2 mph 4 mph 98% 0.00 in 0 W/m2
22:00 30 °F 29.5 °F 30.17 in Calm   2 mph 98% 0.00 in 0 W/m2
22:10 30.2 °F 29.7 °F 30.17 in WNW 1 mph 2 mph 98% 0.00 in 0 W/m2
22:20 30.4 °F 30.1 °F 30.17 in West 2 mph 3 mph 99% 0.00 in 0 W/m2
22:30 30.6 °F 30.3 °F 30.17 in West 2 mph 3 mph 99% 0.00 in 0 W/m2
22:40 30.6 °F 30.3 °F 30.17 in West 2 mph 4 mph 99% 0.00 in 0 W/m2
22:50 30.9 °F 30.6 °F 30.17 in WNW 1 mph 3 mph 99% 0.00 in 0 W/m2
23:00 31.1 °F 30.9 °F 30.17 in West 1 mph 3 mph 99% 0.00 in 0 W/m2
23:10 31.2 °F 30.9 °F 30.17 in WNW 2 mph 4 mph 99% 0.00 in 0 W/m2
23:20 31.4 °F 31.1 °F 30.16 in West 2 mph 4 mph 99% 0.00 in 0 W/m2
23:30 31.3 °F 31 °F 30.17 in West 3 mph 5 mph 99% 0.00 in 0 W/m2
23:40 31.4 °F 31.1 °F 30.16 in WNW 2 mph 5 mph 99% 0.00 in 0 W/m2
23:50 31.5 °F 31.2 °F 30.16 in West 1 mph 3 mph 99% 0.00 in 0 W/m2
Knjazevac, Serbia
Compliments of Weather Underground - 2 mb